Flight Track Log - Related Links

Times and Time Zones

All times are in EDT time to prevent confusion due to time zone crossing. See the N589H flight status page for this flight to view local times or setup timezone preferences in your user account.

Time Position Orientation Groundspeed Altitude Reporting Facility
EDT Latitude Longitude Course Direction KTS MPH feet Rate Location/Type
Fri 11:01:21 AM 23.1758 -81.3628 North 210 242 6,300  Level Miami Center
Fri 11:02:23 AM 23.2406 -81.3531 North 222 255 7,900 1,500 Climbing Miami Center
Fri 11:03:25 AM 23.3108 -81.3408 North 240 276 9,400 1,584 Climbing Miami Center
Fri 11:04:28 AM 23.3981 -81.3258 North 256 295 11,200 1,632 Climbing Miami Center
Fri 11:05:30 AM 23.4708 -81.3106 11° North 261 300 12,800 1,500 Climbing Miami Center
Fri 11:06:32 AM 23.5439 -81.2972 North 262 302 14,300 1,452 Climbing Miami Center
Fri 11:07:34 AM 23.6158 -81.2869 North 262 302 15,800 1,500 Climbing Miami Center
Fri 11:08:36 AM 23.6864 -81.2728 10° North 261 300 17,400 1,392 Climbing Miami Center
Fri 11:09:39 AM 23.7578 -81.2611 North 261 300 18,700 1,200 Climbing Miami Center
Fri 11:10:41 AM 23.8464 -81.2456 North 262 302 19,900 629 Climbing Miami Center
Fri 11:11:43 AM 23.9331 -81.2308 North 306 352 20,000 484 Climbing Miami Center
Fri 11:12:45 AM 24.0247 -81.2153 North 329 379 20,900 912 Climbing Miami Center
Fri 11:13:48 AM 24.1136 -81.2383 347° North 326 375 21,900 960 Climbing Miami Center
Fri 11:14:50 AM 24.2025 -81.2564 350° North 325 374 22,900 968 Climbing Miami Center
Fri 11:15:52 AM 24.2886 -81.2756 349° North 322 371 23,900 1,104 Climbing Miami Center
Fri 11:16:55 AM 24.3942 -81.2989 349° North 321 369 25,200 1,104 Climbing Miami Center
Fri 11:17:57 AM 24.4814 -81.3178 349° North 321 369 26,200 968 Climbing Miami Center
Fri 11:18:59 AM 24.5678 -81.3361 349° North 319 367 27,200 823 Climbing Miami Center
Fri 11:20:01 AM 24.6533 -81.3547 349° North 316 364 27,900 336 Climbing Miami Center
Fri 11:21:04 AM 24.7453 -81.3756 348° North 330 380 27,900 48 Level Miami Center
Fri 11:22:06 AM 24.8633 -81.4019 349° North 357 411 28,000  Climbing Miami Center
Fri 11:23:08 AM 24.9644 -81.4250 348° North 366 421 27,900  Descending Miami Center
Fri 11:24:11 AM 25.0664 -81.4481 348° North 370 426 28,000  Climbing Miami Center
Fri 11:25:13 AM 25.1697 -81.4700 349° North 374 430 27,900 -97 Descending Miami Center
Fri 11:26:15 AM 25.2731 -81.4942 348° North 378 435 27,800 -532 Descending Miami Center
Fri 11:27:17 AM 25.3808 -81.5172 349° North 390 449 26,800 -1,008 Descending Miami Center
Fri 11:28:20 AM 25.5147 -81.5475 348° North 405 466 25,700 -1,008 Descending Miami Center
Fri 11:29:22 AM 25.6261 -81.5714 349° North 406 467 24,700 -968 Descending Miami Center
Fri 11:30:24 AM 25.7336 -81.5961 348° North 398 458 23,700 -960 Descending Miami Center
Fri 11:31:27 AM 25.8375 -81.6294 344° North 389 448 22,700 -823 Descending Miami Center
Fri 11:32:28 AM 25.9381 -81.6725 339° North 388 447 22,000 -341 Descending Miami Center
Fri 11:33:30 AM 26.0333 -81.7125 339° North 367 422 22,000  Level Miami Center
Fri 11:34:33 AM 26.1428 -81.7581 340° North 351 404 22,000  Level Miami Center
Fri 11:35:35 AM 26.2331 -81.7964 339° North 346 398 22,000  Level Miami Center
Fri 11:36:37 AM 26.3275 -81.8358 339° North 359 413 22,000  Level Miami Center
Fri 11:37:39 AM 26.4247 -81.8767 339° North 366 421 22,000  Level Miami Center
Fri 11:38:41 AM 26.5228 -81.9178 339° North 369 425 22,000  Level Miami Center
Fri 11:39:43 AM 26.6217 -81.9592 339° North 376 433 22,000  Level Miami Center
Fri 11:40:45 AM 26.7389 -82.0078 340° North 375 432 22,000 -96 Level Miami Center
Fri 11:41:48 AM 26.8369 -82.0492 339° North 376 433 21,800 -336 Descending Miami Center
Fri 11:42:50 AM 26.9356 -82.0903 340° North 377 434 21,300 -677 Descending Miami Center
Fri 11:43:52 AM 27.0389 -82.1344 339° North 367 422 20,400 -968 Descending Miami Center
Fri 11:44:54 AM 27.1353 -82.1744 340° North 359 413 19,300 -1,016 Descending Miami Center
Fri 11:45:56 AM 27.2292 -82.2139 340° North 349 402 18,300 -919 Descending Miami Center
Fri 11:46:58 AM 27.3217 -82.2533 339° North 345 397 17,400 -919 Descending Miami Center
Fri 11:48:00 AM 27.4153 -82.2736 349° North 343 395 16,400 -1,548 Descending Miami Center
Fri 11:49:02 AM 27.5064 -82.2844 354° North 330 380 14,200 -2,256 Descending Miami Center
Fri 11:50:05 AM 27.5894 -82.2806 North 299 344 11,700 -2,448 Descending Miami Center
Fri 11:51:07 AM 27.6675 -82.2619 12° North 287 330 9,100 -2,374 Descending Miami Center
Fri 11:52:24 AM 27.7667 -82.2500 North 248 285 6,200 -2,365 Descending Tampa TRACON
Fri 11:53:24 AM 27.8333 -82.2500 360° North 225 259 3,700 -1,650 Descending Tampa TRACON
Fri 11:54:24 AM 27.8833 -82.2667 344° North 219 252 2,900 -600 Descending Tampa TRACON
Fri 11:55:24 AM 27.9333 -82.3167 319° Northwest 218 251 2,500 -400 Descending Tampa TRACON
Fri 11:56:24 AM 27.9667 -82.3833 300° West 213 245 2,100 -545 Descending Tampa TRACON
Fri 11:57:25 AM 27.9667 -82.4333 270° West 171 197 1,400 -694 Descending Tampa TRACON
Fri 11:58:25 AM 27.9667 -82.4833 270° West 126 145 700 -700 Descending Tampa TRACON

Login

Don't have an account? Register now (free) for customized features, flight alerts, and more!